createdAt,value
2022-08-04T00:00:12.826Z,99.90
2022-08-04T00:03:12.055Z,99.90
2022-08-04T00:06:03.706Z,99.90
2022-08-04T00:08:53.040Z,99.90
2022-08-04T00:11:27.092Z,99.90
2022-08-04T00:14:06.836Z,99.90
2022-08-04T00:16:39.103Z,99.90
2022-08-04T00:19:42.099Z,99.90
2022-08-04T00:22:11.089Z,99.90
2022-08-04T00:24:39.327Z,99.90
2022-08-04T00:27:08.715Z,99.90
2022-08-04T00:29:39.407Z,99.90
2022-08-04T00:32:08.906Z,99.90
2022-08-04T00:34:37.709Z,99.90
2022-08-04T00:37:06.524Z,99.90
2022-08-04T00:39:34.916Z,99.90
2022-08-04T00:42:34.467Z,99.90
2022-08-04T00:45:24.953Z,99.90
2022-08-04T00:48:32.128Z,99.90
2022-08-04T00:51:16.482Z,99.90
2022-08-04T00:54:15.344Z,99.90
2022-08-04T00:56:54.060Z,99.90
2022-08-04T00:59:42.574Z,99.90
2022-08-04T01:02:35.281Z,99.90
2022-08-04T01:05:24.951Z,99.90
2022-08-04T01:08:17.987Z,99.90
2022-08-04T01:11:12.601Z,99.90
2022-08-04T01:14:16.590Z,99.90
2022-08-04T01:16:54.629Z,99.90
2022-08-04T01:20:05.448Z,99.90
2022-08-04T01:23:17.998Z,99.90
2022-08-04T01:26:44.110Z,99.90
2022-08-04T01:29:16.250Z,99.90
2022-08-04T01:32:08.405Z,99.90
2022-08-04T01:34:43.557Z,99.90
2022-08-04T01:37:37.731Z,99.90
2022-08-04T01:40:07.946Z,99.90
2022-08-04T01:42:37.105Z,99.90
2022-08-04T01:45:10.822Z,99.90
2022-08-04T01:47:42.562Z,99.90
2022-08-04T01:50:12.965Z,99.90
2022-08-04T01:52:46.527Z,99.90
2022-08-04T01:55:18.222Z,99.90
2022-08-04T01:57:52.848Z,99.90
2022-08-04T02:00:23.659Z,99.90
2022-08-04T02:02:51.406Z,99.90
2022-08-04T02:05:22.224Z,99.90
2022-08-04T02:08:34.978Z,99.90
2022-08-04T02:11:15.946Z,99.90
2022-08-04T02:14:00.050Z,99.90
2022-08-04T02:16:40.272Z,99.90
2022-08-04T02:19:36.240Z,99.90
2022-08-04T02:22:10.052Z,99.90
2022-08-04T02:24:47.480Z,99.90
2022-08-04T02:27:15.261Z,99.90
2022-08-04T02:30:05.806Z,99.90
2022-08-04T02:32:39.813Z,99.90
2022-08-04T02:35:16.723Z,99.90
2022-08-04T02:38:12.092Z,99.90
2022-08-04T02:40:40.140Z,99.90
2022-08-04T02:43:08.579Z,99.90
2022-08-04T02:45:38.192Z,99.90
2022-08-04T02:48:28.980Z,99.90
2022-08-04T02:50:58.735Z,99.90
2022-08-04T02:53:27.101Z,99.90
2022-08-04T02:55:56.421Z,99.90
2022-08-04T02:58:29.052Z,99.90
2022-08-04T03:00:55.990Z,99.90
2022-08-04T03:03:43.440Z,99.90
2022-08-04T03:06:44.705Z,99.90
2022-08-04T03:09:35.298Z,99.90
2022-08-04T03:12:39.243Z,99.90
2022-08-04T03:15:21.039Z,99.90
2022-08-04T03:18:20.799Z,99.90
2022-08-04T03:21:22.577Z,99.90
2022-08-04T03:24:10.994Z,99.90
2022-08-04T03:26:53.114Z,99.90
2022-08-04T03:29:59.672Z,99.90
2022-08-04T03:33:15.759Z,99.90
2022-08-04T03:35:49.904Z,99.90
2022-08-04T03:38:57.145Z,99.90
2022-08-04T03:42:04.458Z,99.90
2022-08-04T03:45:24.950Z,99.90
2022-08-04T03:48:29.134Z,99.90
2022-08-04T03:51:47.198Z,99.90
2022-08-04T03:54:39.165Z,99.90
2022-08-04T03:57:34.540Z,99.90
2022-08-04T04:00:13.127Z,99.90
2022-08-04T04:03:35.485Z,99.90
2022-08-04T04:06:25.443Z,99.90
2022-08-04T04:09:21.368Z,99.90
2022-08-04T04:12:12.515Z,99.90
2022-08-04T04:15:35.956Z,99.90
2022-08-04T04:18:37.167Z,99.90
2022-08-04T04:21:27.095Z,99.90
2022-08-04T04:24:34.118Z,99.90
2022-08-04T04:27:29.002Z,99.90
2022-08-04T04:30:29.723Z,99.90
2022-08-04T04:33:18.854Z,99.90
2022-08-04T04:35:56.783Z,99.90
2022-08-04T04:38:45.732Z,99.90
2022-08-04T04:41:32.012Z,99.90
2022-08-04T04:44:12.702Z,99.90
2022-08-04T04:47:06.907Z,99.90
2022-08-04T04:49:46.982Z,99.90
2022-08-04T04:52:21.334Z,99.90
2022-08-04T04:55:06.130Z,99.90
2022-08-04T04:57:54.715Z,99.90
2022-08-04T05:00:26.600Z,99.90
2022-08-04T05:03:14.836Z,99.90
2022-08-04T05:06:11.345Z,99.90
2022-08-04T05:09:19.676Z,99.90
2022-08-04T05:12:44.923Z,99.90
2022-08-04T05:15:12.310Z,99.90
2022-08-04T05:17:42.380Z,99.90
2022-08-04T05:20:22.381Z,99.90
2022-08-04T05:23:05.717Z,99.90
2022-08-04T05:25:39.645Z,99.90
2022-08-04T05:28:36.827Z,99.90
2022-08-04T05:31:21.798Z,99.90
2022-08-04T05:34:09.519Z,99.90
2022-08-04T05:36:45.232Z,99.90
2022-08-04T05:39:23.485Z,99.90
2022-08-04T05:41:55.574Z,99.90
2022-08-04T05:44:27.374Z,99.90
2022-08-04T05:46:58.256Z,99.90
2022-08-04T05:49:29.399Z,99.90
2022-08-04T05:52:00.712Z,99.90
2022-08-04T05:54:31.281Z,99.90
2022-08-04T05:56:58.925Z,99.90
2022-08-04T05:59:26.906Z,99.90
2022-08-04T06:01:58.441Z,99.90
2022-08-04T06:04:45.388Z,99.90
2022-08-04T06:07:14.287Z,99.90
2022-08-04T06:09:42.257Z,99.90
2022-08-04T06:12:22.248Z,99.90
2022-08-04T06:14:55.112Z,99.90
2022-08-04T06:19:57.866Z,99.90
2022-08-04T06:20:34.900Z,99.90
2022-08-04T06:23:09.035Z,99.90
2022-08-04T06:25:45.026Z,99.90
2022-08-04T06:28:13.386Z,99.90
2022-08-04T06:30:41.224Z,99.90
2022-08-04T06:33:27.164Z,99.90
2022-08-04T06:35:55.966Z,99.90
2022-08-04T06:38:28.570Z,99.90
2022-08-04T06:40:58.139Z,99.90
2022-08-04T06:43:29.644Z,99.90
2022-08-04T06:46:02.351Z,99.90
2022-08-04T06:48:33.162Z,99.90
2022-08-04T06:51:27.653Z,99.90
2022-08-04T06:53:49.621Z,99.90
2022-08-04T06:56:19.846Z,99.90
2022-08-04T06:58:47.658Z,99.90
2022-08-04T07:01:17.372Z,99.90
2022-08-04T07:03:45.112Z,99.90
2022-08-04T07:06:18.988Z,99.90
2022-08-04T07:08:46.392Z,99.90
2022-08-04T07:11:13.863Z,99.90
2022-08-04T07:13:44.980Z,99.90
2022-08-04T07:16:15.873Z,99.90
2022-08-04T07:18:43.643Z,99.90
2022-08-04T07:21:19.971Z,99.90
2022-08-04T07:23:47.094Z,99.90
2022-08-04T07:26:16.545Z,99.90
2022-08-04T07:28:43.435Z,99.90
2022-08-04T07:31:34.544Z,99.90
2022-08-04T07:34:17.178Z,99.90
2022-08-04T07:36:55.366Z,99.90
2022-08-04T07:39:28.497Z,99.90
2022-08-04T07:42:01.720Z,99.00
2022-08-04T07:44:33.857Z,97.90
2022-08-04T07:47:03.409Z,96.80
2022-08-04T07:49:55.525Z,96.30
2022-08-04T07:52:18.322Z,96.00
2022-08-04T07:54:45.742Z,96.20
2022-08-04T07:57:20.985Z,96.30
2022-08-04T07:59:59.806Z,96.10
2022-08-04T08:02:27.440Z,95.70
2022-08-04T08:04:54.604Z,95.10
2022-08-04T08:07:21.725Z,94.30
2022-08-04T08:09:48.896Z,93.80
2022-08-04T08:12:37.370Z,93.10
2022-08-04T08:15:04.820Z,92.00
2022-08-04T08:17:31.907Z,91.40
2022-08-04T08:20:29.581Z,90.80
2022-08-04T08:22:57.737Z,90.80
2022-08-04T08:25:24.945Z,90.60
2022-08-04T08:27:55.737Z,90.20
2022-08-04T08:30:25.188Z,90.20
2022-08-04T08:33:02.114Z,90.30
2022-08-04T08:35:53.086Z,89.60
2022-08-04T08:38:55.948Z,89.80
2022-08-04T08:42:13.677Z,89.60
2022-08-04T08:45:07.786Z,88.50
2022-08-04T08:48:07.297Z,87.60
2022-08-04T08:50:51.534Z,86.40
2022-08-04T08:53:43.011Z,86.00
2022-08-04T08:56:40.417Z,85.70
2022-08-04T08:59:26.914Z,84.40
2022-08-04T09:02:18.520Z,84.00
2022-08-04T09:05:06.407Z,82.80
2022-08-04T09:07:55.051Z,80.60
2022-08-04T09:10:53.945Z,81.00
2022-08-04T09:13:28.257Z,78.60
2022-08-04T09:16:14.929Z,76.80
2022-08-04T09:18:47.292Z,73.40
2022-08-04T09:21:32.166Z,72.30
2022-08-04T09:25:00.145Z,71.80
2022-08-04T09:27:52.571Z,71.50
2022-08-04T09:30:22.440Z,72.00
2022-08-04T09:33:20.244Z,72.40
2022-08-04T09:36:29.989Z,73.40
2022-08-04T09:39:33.528Z,72.10
2022-08-04T09:42:29.342Z,73.10
2022-08-04T09:45:06.064Z,73.30
2022-08-04T09:47:57.600Z,73.60
2022-08-04T09:50:45.834Z,73.90
2022-08-04T09:53:50.018Z,74.30
2022-08-04T09:56:50.265Z,76.10
2022-08-04T10:00:06.399Z,76.90
2022-08-04T10:02:38.794Z,78.00
2022-08-04T10:05:10.385Z,78.90
2022-08-04T10:08:17.792Z,79.80
2022-08-04T10:11:09.362Z,80.00
2022-08-04T10:14:46.679Z,80.90
2022-08-04T10:17:35.728Z,81.10
2022-08-04T10:20:58.143Z,81.30
2022-08-04T10:24:00.397Z,81.30
2022-08-04T10:26:54.292Z,82.20
2022-08-04T10:29:46.973Z,82.70
2022-08-04T10:32:34.750Z,82.60
2022-08-04T10:35:19.042Z,82.10
2022-08-04T10:38:30.418Z,82.50
2022-08-04T10:41:18.674Z,82.40
2022-08-04T10:44:16.703Z,82.20
2022-08-04T10:46:57.784Z,82.20
2022-08-04T10:49:35.155Z,81.30
2022-08-04T10:52:20.860Z,80.60
2022-08-04T10:55:07.574Z,80.40
2022-08-04T10:57:47.329Z,78.70
2022-08-04T11:00:21.451Z,77.70
2022-08-04T11:03:12.682Z,77.70
2022-08-04T11:05:44.448Z,75.30
2022-08-04T11:08:38.738Z,74.60
2022-08-04T11:11:56.851Z,73.50
2022-08-04T11:14:58.605Z,72.50
2022-08-04T11:17:36.286Z,73.60
2022-08-04T11:20:38.086Z,72.90
2022-08-04T11:23:18.322Z,72.90
2022-08-04T11:25:52.736Z,72.60
2022-08-04T11:29:04.148Z,72.80
2022-08-04T11:31:46.210Z,72.20
2022-08-04T11:34:27.176Z,71.30
2022-08-04T11:37:22.184Z,72.10
2022-08-04T11:39:58.828Z,71.30
2022-08-04T11:42:36.713Z,71.60
2022-08-04T11:45:04.881Z,71.20
2022-08-04T11:48:00.740Z,71.00
2022-08-04T11:50:41.607Z,71.80
2022-08-04T11:53:11.336Z,71.00
2022-08-04T11:56:09.216Z,70.20
2022-08-04T11:58:26.396Z,69.20
2022-08-04T12:01:28.243Z,68.70
2022-08-04T12:04:52.366Z,68.10
2022-08-04T12:07:40.484Z,68.70
2022-08-04T12:10:37.909Z,68.60
2022-08-04T12:13:28.130Z,68.70
2022-08-04T12:16:16.010Z,68.30
2022-08-04T12:18:54.145Z,67.30
2022-08-04T12:21:44.202Z,66.70
2022-08-04T12:24:22.475Z,66.30
2022-08-04T12:26:58.386Z,66.50
2022-08-04T12:29:28.413Z,65.90
2022-08-04T12:32:05.738Z,65.90
2022-08-04T12:34:39.895Z,65.90
2022-08-04T12:38:02.923Z,65.70
2022-08-04T12:40:48.887Z,64.10
2022-08-04T12:43:44.409Z,63.90
2022-08-04T12:46:22.645Z,63.70
2022-08-04T12:48:50.613Z,63.30
2022-08-04T12:52:06.995Z,64.40
2022-08-04T12:54:10.253Z,63.90
2022-08-04T12:56:38.145Z,63.80
2022-08-04T12:59:12.521Z,64.20
2022-08-04T13:02:11.162Z,65.60
2022-08-04T13:04:38.247Z,66.20
2022-08-04T13:07:23.946Z,65.60
2022-08-04T13:09:52.376Z,64.60
2022-08-04T13:12:32.873Z,62.50
2022-08-04T13:15:19.176Z,61.00
2022-08-04T13:17:59.166Z,60.40
2022-08-04T13:20:36.772Z,60.20
2022-08-04T13:23:20.190Z,60.70
2022-08-04T13:26:42.295Z,60.40
2022-08-04T13:28:44.086Z,60.20
2022-08-04T13:31:23.229Z,59.80
2022-08-04T13:33:54.144Z,60.00
2022-08-04T13:36:26.319Z,59.10
2022-08-04T13:38:59.380Z,58.20
2022-08-04T13:41:31.163Z,57.70
2022-08-04T13:44:19.394Z,58.50
2022-08-04T13:46:59.552Z,58.30
2022-08-04T13:49:42.549Z,58.20
2022-08-04T13:52:13.658Z,57.60
2022-08-04T13:54:44.449Z,57.80
2022-08-04T13:57:30.279Z,57.40
2022-08-04T14:00:07.299Z,57.70
2022-08-04T14:03:19.228Z,57.30
2022-08-04T14:06:36.700Z,57.80
2022-08-04T14:09:23.132Z,57.90
2022-08-04T14:12:45.721Z,58.30
2022-08-04T14:15:00.672Z,59.10
2022-08-04T14:17:30.452Z,59.00
2022-08-04T14:20:04.614Z,58.80
2022-08-04T14:22:35.197Z,59.30
2022-08-04T14:25:15.951Z,59.70
2022-08-04T14:27:48.959Z,60.10
2022-08-04T14:30:37.191Z,59.50
2022-08-04T14:34:04.805Z,59.80
2022-08-04T14:36:01.521Z,59.80
2022-08-04T14:38:58.616Z,59.70
2022-08-04T14:41:45.624Z,59.70
2022-08-04T14:44:15.045Z,58.20
2022-08-04T14:46:56.113Z,58.30
2022-08-04T14:49:23.669Z,58.20
2022-08-04T14:52:01.619Z,57.90
2022-08-04T14:54:34.461Z,57.90
2022-08-04T14:57:05.205Z,57.40
2022-08-04T15:00:00.559Z,57.50
2022-08-04T15:02:30.574Z,58.00
2022-08-04T15:04:58.243Z,57.90
2022-08-04T15:07:25.658Z,58.20
2022-08-04T15:09:52.892Z,58.40
2022-08-04T15:12:20.956Z,58.40
2022-08-04T15:14:48.476Z,58.50
2022-08-04T15:17:30.241Z,58.70
2022-08-04T15:19:58.017Z,59.30
2022-08-04T15:22:25.166Z,59.20
2022-08-04T15:24:54.895Z,59.50
2022-08-04T15:27:28.545Z,59.60
2022-08-04T15:30:02.230Z,59.70
2022-08-04T15:32:54.604Z,59.50
2022-08-04T15:35:29.004Z,59.60
2022-08-04T15:38:10.531Z,59.70
2022-08-04T15:41:00.198Z,59.10
2022-08-04T15:43:55.496Z,59.00
2022-08-04T15:47:05.306Z,58.70
2022-08-04T15:49:33.679Z,58.60
2022-08-04T15:52:12.072Z,59.00
2022-08-04T15:54:42.167Z,58.50
2022-08-04T15:57:10.301Z,58.30
2022-08-04T16:00:00.431Z,58.40
2022-08-04T16:02:37.022Z,58.60
2022-08-04T16:05:18.232Z,58.90
2022-08-04T16:08:00.064Z,59.20
2022-08-04T16:10:29.929Z,59.40
2022-08-04T16:13:20.296Z,59.20
2022-08-04T16:16:03.089Z,59.30
2022-08-04T16:18:30.654Z,59.10
2022-08-04T16:21:17.990Z,59.50
2022-08-04T16:24:21.368Z,59.50
2022-08-04T16:26:56.243Z,59.20
2022-08-04T16:29:23.638Z,59.40
2022-08-04T16:32:05.849Z,59.90
2022-08-04T16:35:00.035Z,59.50
2022-08-04T16:37:39.020Z,60.00
2022-08-04T16:40:34.657Z,59.20
2022-08-04T16:43:09.195Z,59.30
2022-08-04T16:45:56.431Z,59.20
2022-08-04T16:48:29.838Z,59.60
2022-08-04T16:51:15.206Z,58.90
2022-08-04T16:53:57.745Z,59.10
2022-08-04T16:56:34.676Z,59.40
2022-08-04T16:59:12.041Z,59.00
2022-08-04T17:01:50.459Z,58.70
2022-08-04T17:04:18.009Z,59.10
2022-08-04T17:06:49.452Z,59.00
2022-08-04T17:09:19.518Z,58.90
2022-08-04T17:11:48.237Z,58.90
2022-08-04T17:14:26.401Z,59.40
2022-08-04T17:16:57.727Z,59.40
2022-08-04T17:19:26.500Z,59.50
2022-08-04T17:22:06.073Z,59.70
2022-08-04T17:24:39.001Z,59.80
2022-08-04T17:28:09.004Z,59.70
2022-08-04T17:29:55.137Z,60.00
2022-08-04T17:32:23.620Z,60.70
2022-08-04T17:34:54.143Z,61.70
2022-08-04T17:37:40.557Z,62.60
2022-08-04T17:40:25.876Z,63.30
2022-08-04T17:44:04.589Z,64.50
2022-08-04T17:46:28.451Z,65.20
2022-08-04T17:49:00.505Z,66.00
2022-08-04T17:52:04.165Z,66.90
2022-08-04T17:57:22.239Z,66.80
2022-08-04T17:59:58.325Z,66.50
2022-08-04T18:11:02.406Z,65.70
2022-08-04T18:13:29.504Z,65.80
2022-08-04T18:16:22.528Z,65.80
2022-08-04T18:19:13.624Z,65.80
2022-08-04T18:21:45.735Z,65.80
2022-08-04T18:24:14.939Z,65.70
2022-08-04T18:26:42.430Z,65.80
2022-08-04T18:29:31.832Z,66.00
2022-08-04T18:31:59.455Z,65.90
2022-08-04T18:34:27.507Z,65.90
2022-08-04T18:36:59.027Z,66.10
2022-08-04T18:40:17.290Z,66.40
2022-08-04T18:42:15.225Z,66.60
2022-08-04T18:44:51.998Z,67.10
2022-08-04T18:47:23.155Z,67.40
2022-08-04T18:50:39.987Z,67.70
2022-08-04T18:52:45.356Z,68.10
2022-08-04T18:55:57.085Z,68.40
2022-08-04T18:58:07.224Z,69.00
2022-08-04T19:00:48.397Z,69.80
2022-08-04T19:03:16.260Z,70.50
2022-08-04T19:05:49.023Z,71.10
2022-08-04T19:08:32.875Z,71.70
2022-08-04T19:11:37.684Z,72.50
2022-08-04T19:13:54.618Z,73.30
2022-08-04T19:16:29.519Z,74.20
2022-08-04T19:18:58.446Z,75.20
2022-08-04T19:21:58.634Z,76.10
2022-08-04T19:24:32.409Z,77.00
2022-08-04T19:27:07.274Z,78.00
2022-08-04T19:29:41.469Z,79.10
2022-08-04T19:32:14.863Z,80.00
2022-08-04T19:38:01.724Z,82.00
2022-08-04T19:40:33.554Z,82.30
2022-08-04T19:43:14.373Z,82.90
2022-08-04T19:45:44.965Z,83.90
2022-08-04T19:48:18.747Z,84.80
2022-08-04T19:50:48.798Z,85.70
2022-08-04T19:53:19.498Z,86.20
2022-08-04T19:55:49.415Z,86.60
2022-08-04T19:58:18.118Z,86.50
2022-08-04T20:00:51.124Z,86.50
2022-08-04T20:03:20.335Z,86.60
2022-08-04T20:05:53.826Z,87.60
2022-08-04T20:08:27.868Z,88.70
2022-08-04T20:10:56.116Z,89.80
2022-08-04T20:13:36.993Z,90.50
2022-08-04T20:16:28.829Z,90.80
2022-08-04T20:18:59.488Z,91.20
2022-08-04T20:21:54.379Z,91.80
2022-08-04T20:24:38.752Z,92.10
2022-08-04T20:27:08.943Z,92.30
2022-08-04T20:29:46.020Z,92.40
2022-08-04T20:32:13.658Z,92.70
2022-08-04T20:34:42.742Z,92.90
2022-08-04T20:37:10.484Z,93.40
2022-08-04T20:39:38.230Z,93.70
2022-08-04T20:42:05.875Z,93.90
2022-08-04T20:44:33.749Z,94.20
2022-08-04T20:47:00.812Z,94.50
2022-08-04T20:49:35.171Z,94.80
2022-08-04T20:52:13.328Z,95.10
2022-08-04T20:54:42.716Z,95.50
2022-08-04T20:57:16.641Z,95.80
2022-08-04T20:59:50.306Z,96.10
2022-08-04T21:02:27.045Z,96.50
2022-08-04T21:04:54.382Z,97.10
2022-08-04T21:07:22.984Z,97.30
2022-08-04T21:09:51.251Z,97.80
2022-08-04T21:12:27.624Z,98.30
2022-08-04T21:14:57.954Z,98.90
2022-08-04T21:17:58.898Z,99.40
2022-08-04T21:20:13.877Z,99.70
2022-08-04T21:22:41.007Z,99.90
2022-08-04T21:25:15.738Z,99.90
2022-08-04T21:27:44.416Z,99.90
2022-08-04T21:30:25.030Z,99.90
2022-08-04T21:32:55.282Z,99.90
2022-08-04T21:38:17.114Z,99.90
2022-08-04T21:41:01.756Z,99.90
2022-08-04T21:43:42.544Z,99.90
2022-08-04T21:46:11.412Z,99.90
2022-08-04T21:48:39.609Z,99.90
2022-08-04T21:51:21.686Z,99.90
2022-08-04T21:54:09.523Z,99.90
2022-08-04T21:56:39.230Z,99.90
2022-08-04T21:59:14.185Z,99.90
2022-08-04T22:01:50.316Z,99.90
2022-08-04T22:04:19.872Z,99.90
2022-08-04T22:06:47.575Z,99.90
2022-08-04T22:09:18.992Z,99.90
2022-08-04T22:11:50.496Z,99.90
2022-08-04T22:14:27.307Z,99.90
2022-08-04T22:16:57.641Z,99.90
2022-08-04T22:19:40.657Z,99.90
2022-08-04T22:22:12.665Z,99.90
2022-08-04T22:24:51.528Z,99.90
2022-08-04T22:27:36.754Z,99.90
2022-08-04T22:30:17.076Z,99.90
2022-08-04T22:32:46.299Z,99.90
2022-08-04T22:35:35.667Z,99.90
2022-08-04T22:38:06.649Z,99.90
2022-08-04T22:40:38.462Z,99.90
2022-08-04T22:43:22.603Z,99.90
2022-08-04T22:45:52.361Z,99.90
2022-08-04T22:48:19.535Z,99.90
2022-08-04T22:50:46.498Z,99.90
2022-08-04T22:53:18.100Z,99.90
2022-08-04T22:56:07.096Z,99.90
2022-08-04T22:58:32.570Z,99.90
2022-08-04T23:01:00.799Z,99.90
2022-08-04T23:03:36.957Z,99.90
2022-08-04T23:06:11.715Z,99.90
2022-08-04T23:08:43.029Z,99.90
2022-08-04T23:11:14.659Z,99.90
2022-08-04T23:13:42.076Z,99.90
2022-08-04T23:16:10.489Z,99.90
2022-08-04T23:18:42.226Z,99.90
2022-08-04T23:21:11.548Z,99.90
2022-08-04T23:23:47.713Z,99.90
2022-08-04T23:26:27.385Z,99.90
2022-08-04T23:28:55.967Z,99.90
2022-08-04T23:31:24.154Z,99.90
2022-08-04T23:33:52.423Z,99.90
2022-08-04T23:36:26.453Z,99.90
2022-08-04T23:39:00.527Z,99.90
2022-08-04T23:41:55.150Z,99.90
2022-08-04T23:44:23.480Z,99.90
2022-08-04T23:47:01.579Z,99.90
2022-08-04T23:49:44.394Z,99.90
2022-08-04T23:52:28.295Z,99.90
2022-08-04T23:54:58.865Z,99.90
2022-08-04T23:58:02.583Z,99.90
